createdAt,value
2023-05-12T00:01:42.993Z,16.20
2023-05-12T00:06:34.958Z,16.00
2023-05-12T00:11:27.110Z,16.00
2023-05-12T00:16:19.371Z,16.00
2023-05-12T00:21:12.418Z,16.10
2023-05-12T00:26:04.934Z,16.30
2023-05-12T00:31:02.178Z,16.20
2023-05-12T00:35:54.131Z,16.10
2023-05-12T00:40:46.279Z,16.20
2023-05-12T00:45:39.148Z,16.30
2023-05-12T00:50:31.894Z,16.10
2023-05-12T00:55:24.893Z,16.20
2023-05-12T01:00:17.281Z,16.00
2023-05-12T01:11:12.061Z,15.80
2023-05-12T01:16:06.224Z,15.80
2023-05-12T01:21:00.582Z,15.80
2023-05-12T01:25:54.186Z,15.70
2023-05-12T01:30:46.924Z,15.80
2023-05-12T01:35:39.182Z,15.80
2023-05-12T01:40:31.494Z,15.80
2023-05-12T01:45:24.277Z,15.80
2023-05-12T01:50:18.285Z,15.60
2023-05-12T01:55:10.898Z,15.50
2023-05-12T02:00:11.192Z,15.50
2023-05-12T02:05:06.219Z,15.50
2023-05-12T02:09:58.696Z,15.40
2023-05-12T02:14:52.155Z,15.50
2023-05-12T02:19:44.606Z,15.40
2023-05-12T02:24:38.847Z,15.20
2023-05-12T02:29:32.388Z,15.10
2023-05-12T02:34:25.074Z,15.10
2023-05-12T02:39:17.448Z,15.10
2023-05-12T02:44:09.569Z,15.00
2023-05-12T02:49:02.426Z,15.00
2023-05-12T02:53:54.482Z,14.80
2023-05-12T02:58:46.913Z,14.70
2023-05-12T03:03:39.286Z,14.60
2023-05-12T03:08:31.828Z,14.60
2023-05-12T03:13:23.944Z,14.60
2023-05-12T03:18:16.564Z,14.50
2023-05-12T03:23:08.876Z,14.50
2023-05-12T03:28:03.708Z,14.50
2023-05-12T03:32:56.294Z,14.60
2023-05-12T03:37:48.374Z,14.60
2023-05-12T03:42:40.561Z,14.60
2023-05-12T03:47:36.012Z,14.60
2023-05-12T03:52:28.290Z,14.70
2023-05-12T03:57:20.406Z,14.70
2023-05-12T04:02:14.383Z,14.70
2023-05-12T04:07:06.705Z,14.80
2023-05-12T04:11:58.977Z,15.00
2023-05-12T04:16:51.091Z,15.00
2023-05-12T04:21:43.211Z,15.00
2023-05-12T04:26:35.498Z,15.20
2023-05-12T04:31:27.665Z,15.20
2023-05-12T04:36:20.536Z,15.30
2023-05-12T04:41:12.709Z,15.50
2023-05-12T04:46:05.227Z,16.20
2023-05-12T04:51:01.711Z,17.70
2023-05-12T04:55:53.993Z,18.20
2023-05-12T05:00:46.156Z,18.90
2023-05-12T05:05:38.364Z,23.70
2023-05-12T05:10:30.638Z,22.90
2023-05-12T05:15:23.086Z,26.80
2023-05-12T05:20:15.795Z,29.40
2023-05-12T05:25:09.358Z,30.00
2023-05-12T05:30:01.888Z,29.30
2023-05-12T05:34:56.020Z,31.10
2023-05-12T05:39:48.127Z,33.70
2023-05-12T05:44:40.260Z,31.40
2023-05-12T05:49:32.430Z,31.10
2023-05-12T05:54:26.038Z,29.60
2023-05-12T05:59:18.255Z,27.70
2023-05-12T06:04:10.467Z,30.00
2023-05-12T06:09:02.795Z,30.20
2023-05-12T06:13:54.808Z,33.10
2023-05-12T06:18:46.858Z,33.80
2023-05-12T06:23:38.875Z,34.20
2023-05-12T06:28:30.930Z,36.00
2023-05-12T06:33:23.084Z,38.00
2023-05-12T06:38:18.387Z,36.00
2023-05-12T06:43:13.155Z,36.90
2023-05-12T06:48:10.382Z,38.20
2023-05-12T06:53:02.725Z,39.60
2023-05-12T06:57:56.108Z,40.10
2023-05-12T07:02:48.413Z,39.10
2023-05-12T07:07:40.769Z,40.70
2023-05-12T07:12:34.241Z,42.10
2023-05-12T07:17:26.603Z,42.10
2023-05-12T07:22:20.771Z,41.80
2023-05-12T07:27:13.461Z,40.70
2023-05-12T07:32:06.451Z,39.60
2023-05-12T07:36:59.663Z,41.00
2023-05-12T07:41:52.997Z,42.40
2023-05-12T07:46:45.509Z,40.90
2023-05-12T07:51:37.754Z,40.40
2023-05-12T07:56:29.872Z,39.40
2023-05-12T08:01:21.979Z,36.90
2023-05-12T08:06:14.361Z,36.40
2023-05-12T08:11:06.486Z,36.60
2023-05-12T08:15:58.672Z,36.10
2023-05-12T08:20:50.769Z,35.80
2023-05-12T08:25:44.477Z,36.70
2023-05-12T08:30:36.697Z,36.60
2023-05-12T08:35:29.021Z,34.70
2023-05-12T08:40:23.336Z,34.80
2023-05-12T08:45:15.861Z,35.40
2023-05-12T08:50:09.831Z,36.20
2023-05-12T08:55:04.747Z,35.80
2023-05-12T09:00:00.753Z,34.10
2023-05-12T09:04:55.254Z,32.70
2023-05-12T09:09:52.691Z,32.10
2023-05-12T09:14:47.112Z,31.30
2023-05-12T09:19:39.566Z,31.10
2023-05-12T09:24:38.718Z,30.50
2023-05-12T09:34:41.228Z,28.30
2023-05-12T09:39:34.381Z,28.30
2023-05-12T09:44:29.119Z,27.80
2023-05-12T09:49:28.076Z,29.00
2023-05-12T09:54:32.231Z,30.20
2023-05-12T09:59:30.899Z,31.00
2023-05-12T10:04:23.243Z,31.60
2023-05-12T10:09:23.973Z,30.70
2023-05-12T10:14:19.812Z,30.90
2023-05-12T10:19:16.003Z,31.10
2023-05-12T10:24:08.280Z,30.40
2023-05-12T10:29:00.793Z,31.30
2023-05-12T10:34:00.068Z,32.20
2023-05-12T10:38:52.677Z,31.80
2023-05-12T10:43:49.577Z,30.60
2023-05-12T10:49:04.418Z,29.90
2023-05-12T10:54:02.233Z,30.20
2023-05-12T10:59:27.752Z,30.40
2023-05-12T11:04:22.309Z,29.30
2023-05-12T11:09:15.460Z,27.50
2023-05-12T11:14:09.577Z,26.70
2023-05-12T11:19:05.660Z,26.70
2023-05-12T11:23:59.110Z,29.20
2023-05-12T11:28:51.538Z,31.40
2023-05-12T11:33:43.642Z,28.60
2023-05-12T11:38:35.895Z,26.60
2023-05-12T11:43:29.206Z,25.70
2023-05-12T11:48:22.359Z,25.00
2023-05-12T11:53:17.326Z,24.80
2023-05-12T11:58:09.368Z,24.80
2023-05-12T12:03:14.034Z,25.10
2023-05-12T12:08:16.345Z,25.40
2023-05-12T12:13:08.416Z,26.40
2023-05-12T12:18:00.593Z,26.30
2023-05-12T12:22:53.902Z,25.80
2023-05-12T12:27:46.122Z,25.50
2023-05-12T12:32:38.647Z,24.60
2023-05-12T12:37:31.125Z,24.40
2023-05-12T12:42:23.268Z,24.60
2023-05-12T12:47:16.041Z,25.10
2023-05-12T12:52:08.190Z,24.80
2023-05-12T12:57:00.286Z,25.30
2023-05-12T13:01:53.076Z,25.10
2023-05-12T13:06:45.288Z,25.00
2023-05-12T13:11:37.489Z,25.20
2023-05-12T13:16:30.211Z,25.80
2023-05-12T13:21:22.972Z,25.40
2023-05-12T13:26:14.980Z,24.90
2023-05-12T13:31:07.725Z,24.50
2023-05-12T13:35:59.847Z,24.40
2023-05-12T13:40:52.238Z,24.50
2023-05-12T13:45:44.237Z,24.30
2023-05-12T13:50:36.425Z,24.40
2023-05-12T13:55:28.472Z,24.30
2023-05-12T14:00:20.839Z,24.50
2023-05-12T14:05:12.887Z,24.60
2023-05-12T14:10:05.236Z,24.60
2023-05-12T14:15:07.342Z,24.40
2023-05-12T14:20:09.723Z,24.30
2023-05-12T14:25:01.844Z,24.30
2023-05-12T14:29:55.838Z,23.70
2023-05-12T14:34:47.872Z,22.80
2023-05-12T14:39:39.945Z,21.90
2023-05-12T14:44:32.327Z,21.50
2023-05-12T14:49:24.725Z,21.60
2023-05-12T14:54:25.569Z,21.90
2023-05-12T14:59:18.299Z,22.10
2023-05-12T15:04:10.415Z,22.40
2023-05-12T15:09:02.426Z,22.70
2023-05-12T15:13:54.520Z,22.90
2023-05-12T15:18:46.654Z,23.10
2023-05-12T15:23:38.866Z,23.10
2023-05-12T15:28:31.397Z,23.10
2023-05-12T15:33:24.517Z,23.00
2023-05-12T15:38:16.841Z,22.90
2023-05-12T15:43:08.949Z,22.90
2023-05-12T15:48:01.130Z,23.00
2023-05-12T15:52:53.234Z,23.30
2023-05-12T15:57:45.446Z,23.50
2023-05-12T16:02:37.647Z,23.50
2023-05-12T16:07:31.174Z,23.40
2023-05-12T16:12:23.534Z,23.30
2023-05-12T16:17:15.499Z,23.10
2023-05-12T16:22:07.578Z,23.00
2023-05-12T16:26:59.573Z,22.80
2023-05-12T16:31:52.089Z,22.50
2023-05-12T16:36:44.212Z,22.20
2023-05-12T16:41:36.384Z,22.10
2023-05-12T16:46:28.890Z,22.10
2023-05-12T16:51:21.080Z,22.20
2023-05-12T16:56:13.178Z,22.30
2023-05-12T17:01:05.518Z,21.70
2023-05-12T17:05:57.855Z,21.10
2023-05-12T17:10:51.262Z,20.70
2023-05-12T17:15:43.387Z,20.30
2023-05-12T17:20:35.557Z,20.00
2023-05-12T17:25:29.723Z,19.70
2023-05-12T17:30:21.885Z,19.70
2023-05-12T17:35:14.207Z,19.50
2023-05-12T17:40:07.790Z,19.30
2023-05-12T17:45:00.529Z,19.30
2023-05-12T17:49:52.725Z,19.20
2023-05-12T17:54:44.904Z,19.10
2023-05-12T17:59:38.046Z,19.10
2023-05-12T18:04:30.188Z,19.10
2023-05-12T18:09:23.503Z,19.20
2023-05-12T18:14:16.197Z,19.20
2023-05-12T18:19:09.286Z,19.30
2023-05-12T18:24:01.516Z,19.30
2023-05-12T18:28:55.015Z,19.10
2023-05-12T18:33:48.423Z,19.00
2023-05-12T18:38:40.619Z,18.90
2023-05-12T18:43:32.777Z,18.80
2023-05-12T18:48:24.854Z,18.80
2023-05-12T18:53:16.878Z,18.70
2023-05-12T18:58:08.950Z,18.60
2023-05-12T19:03:02.895Z,18.60
2023-05-12T19:07:55.159Z,18.50
2023-05-12T19:12:48.211Z,18.30
2023-05-12T19:17:40.901Z,18.10
2023-05-12T19:22:34.045Z,17.90
2023-05-12T19:27:27.166Z,17.60
2023-05-12T19:32:19.128Z,17.30
2023-05-12T19:37:11.456Z,17.20
2023-05-12T19:42:03.710Z,17.20
2023-05-12T19:46:58.884Z,17.20
2023-05-12T19:51:51.888Z,17.00
2023-05-12T19:56:43.884Z,16.80
2023-05-12T20:01:36.079Z,16.70
2023-05-12T20:06:28.085Z,16.50
2023-05-12T20:11:20.278Z,16.40
2023-05-12T20:16:13.828Z,16.20
2023-05-12T20:21:05.912Z,16.20
2023-05-12T20:25:58.007Z,16.00
2023-05-12T20:30:50.482Z,15.80
2023-05-12T20:35:42.526Z,15.70
2023-05-12T20:40:34.592Z,15.50
2023-05-12T20:45:26.759Z,15.40
2023-05-12T20:50:20.534Z,15.30
2023-05-12T20:55:12.636Z,15.20
2023-05-12T21:00:06.296Z,15.20
2023-05-12T21:04:58.477Z,15.10
2023-05-12T21:09:50.524Z,14.90
2023-05-12T21:14:44.206Z,14.80
2023-05-12T21:19:37.550Z,14.80
2023-05-12T21:24:29.670Z,14.70
2023-05-12T21:29:21.733Z,14.80
2023-05-12T21:34:14.023Z,14.60
2023-05-12T21:39:06.322Z,14.40
2023-05-12T21:43:58.747Z,14.20
2023-05-12T21:48:50.921Z,14.00
2023-05-12T21:53:43.415Z,13.90
2023-05-12T21:58:37.073Z,13.90
2023-05-12T22:03:29.230Z,13.80
2023-05-12T22:08:21.324Z,13.70
2023-05-12T22:13:13.368Z,13.60
2023-05-12T22:18:05.508Z,13.70
2023-05-12T22:22:57.712Z,13.50
2023-05-12T22:27:49.826Z,13.30
2023-05-12T22:32:41.945Z,13.30
2023-05-12T22:37:34.047Z,13.10
2023-05-12T22:42:26.104Z,13.10
2023-05-12T22:47:18.188Z,12.90
2023-05-12T22:52:10.484Z,13.00
2023-05-12T22:57:02.530Z,12.90
2023-05-12T23:01:54.617Z,12.80
2023-05-12T23:06:46.689Z,12.70
2023-05-12T23:11:38.980Z,12.70
2023-05-12T23:16:31.484Z,12.80
2023-05-12T23:21:23.501Z,12.70
2023-05-12T23:26:16.758Z,12.60
2023-05-12T23:31:08.786Z,12.50
2023-05-12T23:36:00.845Z,12.40
2023-05-12T23:40:52.847Z,12.50
2023-05-12T23:45:45.714Z,12.40
2023-05-12T23:50:37.683Z,12.20
2023-05-12T23:55:29.997Z,12.10
